sensor_id;sensor_type;location;lat;lon;timestamp;temperature;humidity
31084;DHT22;36333;51.382;0.016;2023-02-01T00:01:09;6.10;99.90
31084;DHT22;36333;51.382;0.016;2023-02-01T00:03:37;5.40;99.90
31084;DHT22;36333;51.382;0.016;2023-02-01T00:06:05;6.70;99.90
31084;DHT22;36333;51.382;0.016;2023-02-01T00:08:33;6.70;99.90
31084;DHT22;36333;51.382;0.016;2023-02-01T00:11:02;5.30;99.90
31084;DHT22;36333;51.382;0.016;2023-02-01T00:13:32;5.30;99.90
31084;DHT22;36333;51.382;0.016;2023-02-01T00:16:20;5.30;99.90
31084;DHT22;36333;51.382;0.016;2023-02-01T00:18:50;5.20;99.90
31084;DHT22;36333;51.382;0.016;2023-02-01T00:21:20;5.10;99.90
31084;DHT22;36333;51.382;0.016;2023-02-01T00:23:48;5.20;99.90
31084;DHT22;36333;51.382;0.016;2023-02-01T00:26:18;5.20;99.90
31084;DHT22;36333;51.382;0.016;2023-02-01T00:28:46;5.20;99.90
31084;DHT22;36333;51.382;0.016;2023-02-01T00:31:13;5.60;99.90
31084;DHT22;36333;51.382;0.016;2023-02-01T00:33:42;6.60;99.90
31084;DHT22;36333;51.382;0.016;2023-02-01T00:36:10;5.20;99.90
31084;DHT22;36333;51.382;0.016;2023-02-01T00:38:38;5.90;99.90
31084;DHT22;36333;51.382;0.016;2023-02-01T00:41:09;5.10;99.90
31084;DHT22;36333;51.382;0.016;2023-02-01T00:43:37;6.20;99.90
31084;DHT22;36333;51.382;0.016;2023-02-01T00:46:05;5.10;99.90
31084;DHT22;36333;51.382;0.016;2023-02-01T00:48:32;4.90;99.90
31084;DHT22;36333;51.382;0.016;2023-02-01T00:51:01;5.00;99.90
31084;DHT22;36333;51.382;0.016;2023-02-01T00:53:29;5.00;99.90
31084;DHT22;36333;51.382;0.016;2023-02-01T00:55:57;5.10;99.90
31084;DHT22;36333;51.382;0.016;2023-02-01T00:58:25;5.90;99.90
31084;DHT22;36333;51.382;0.016;2023-02-01T01:03:44;5.00;99.90
31084;DHT22;36333;51.382;0.016;2023-02-01T01:06:17;5.80;99.90
31084;DHT22;36333;51.382;0.016;2023-02-01T01:08:45;6.90;99.90
31084;DHT22;36333;51.382;0.016;2023-02-01T01:11:16;5.00;99.90
31084;DHT22;36333;51.382;0.016;2023-02-01T01:13:47;5.00;99.90
31084;DHT22;36333;51.382;0.016;2023-02-01T01:16:16;5.00;99.90
31084;DHT22;36333;51.382;0.016;2023-02-01T01:18:44;4.60;99.90
31084;DHT22;36333;51.382;0.016;2023-02-01T01:21:13;5.00;99.90
31084;DHT22;36333;51.382;0.016;2023-02-01T01:23:42;5.00;99.90
31084;DHT22;36333;51.382;0.016;2023-02-01T01:26:14;5.00;99.90
31084;DHT22;36333;51.382;0.016;2023-02-01T01:28:41;5.00;99.90
31084;DHT22;36333;51.382;0.016;2023-02-01T01:31:10;5.00;99.90
31084;DHT22;36333;51.382;0.016;2023-02-01T01:33:38;5.10;99.90
31084;DHT22;36333;51.382;0.016;2023-02-01T01:36:07;5.50;99.90
31084;DHT22;36333;51.382;0.016;2023-02-01T01:38:40;5.00;99.90
31084;DHT22;36333;51.382;0.016;2023-02-01T01:41:09;5.00;99.90
31084;DHT22;36333;51.382;0.016;2023-02-01T01:43:58;5.00;99.90
31084;DHT22;36333;51.382;0.016;2023-02-01T01:46:31;5.10;99.90
31084;DHT22;36333;51.382;0.016;2023-02-01T01:49:13;6.80;99.90
31084;DHT22;36333;51.382;0.016;2023-02-01T01:54:23;4.90;99.90
31084;DHT22;36333;51.382;0.016;2023-02-01T01:56:57;5.10;99.90
31084;DHT22;36333;51.382;0.016;2023-02-01T01:59:26;5.60;99.90
31084;DHT22;36333;51.382;0.016;2023-02-01T02:01:54;5.20;99.90
31084;DHT22;36333;51.382;0.016;2023-02-01T02:04:23;5.10;99.90
31084;DHT22;36333;51.382;0.016;2023-02-01T02:06:56;5.00;99.90
31084;DHT22;36333;51.382;0.016;2023-02-01T02:09:24;5.80;99.90
31084;DHT22;36333;51.382;0.016;2023-02-01T02:11:52;5.70;99.90
31084;DHT22;36333;51.382;0.016;2023-02-01T02:14:21;5.60;99.90
31084;DHT22;36333;51.382;0.016;2023-02-01T02:38:44;5.20;99.90
31084;DHT22;36333;51.382;0.016;2023-02-01T02:41:45;5.20;99.90
31084;DHT22;36333;51.382;0.016;2023-02-01T02:47:59;5.10;99.90
31084;DHT22;36333;51.382;0.016;2023-02-01T02:50:38;5.10;99.90
31084;DHT22;36333;51.382;0.016;2023-02-01T02:54:02;5.10;99.90
31084;DHT22;36333;51.382;0.016;2023-02-01T02:56:49;5.10;99.90
31084;DHT22;36333;51.382;0.016;2023-02-01T02:59:38;5.80;99.90
31084;DHT22;36333;51.382;0.016;2023-02-01T03:02:27;5.20;99.90
31084;DHT22;36333;51.382;0.016;2023-02-01T03:05:13;5.20;99.90
31084;DHT22;36333;51.382;0.016;2023-02-01T03:07:57;5.60;99.90
31084;DHT22;36333;51.382;0.016;2023-02-01T03:11:06;5.60;99.90
31084;DHT22;36333;51.382;0.016;2023-02-01T03:16:39;5.80;99.90
31084;DHT22;36333;51.382;0.016;2023-02-01T03:19:16;5.90;99.90
31084;DHT22;36333;51.382;0.016;2023-02-01T03:22:02;6.40;99.90
31084;DHT22;36333;51.382;0.016;2023-02-01T03:24:50;6.00;99.90
31084;DHT22;36333;51.382;0.016;2023-02-01T03:29:59;6.00;99.90
31084;DHT22;36333;51.382;0.016;2023-02-01T03:32:29;5.90;99.90
31084;DHT22;36333;51.382;0.016;2023-02-01T03:35:17;5.90;99.90
31084;DHT22;36333;51.382;0.016;2023-02-01T03:37:47;6.20;99.90
31084;DHT22;36333;51.382;0.016;2023-02-01T03:40:18;5.80;99.90
31084;DHT22;36333;51.382;0.016;2023-02-01T03:42:50;7.20;99.90
31084;DHT22;36333;51.382;0.016;2023-02-01T03:45:28;5.70;99.90
31084;DHT22;36333;51.382;0.016;2023-02-01T03:47:59;5.70;99.90
31084;DHT22;36333;51.382;0.016;2023-02-01T03:50:31;5.70;99.90
31084;DHT22;36333;51.382;0.016;2023-02-01T03:53:15;5.60;99.90
31084;DHT22;36333;51.382;0.016;2023-02-01T03:55:45;5.60;99.90
31084;DHT22;36333;51.382;0.016;2023-02-01T03:58:16;5.60;99.90
31084;DHT22;36333;51.382;0.016;2023-02-01T04:00:54;5.30;99.90
31084;DHT22;36333;51.382;0.016;2023-02-01T04:03:23;5.50;99.90
31084;DHT22;36333;51.382;0.016;2023-02-01T04:05:52;5.40;99.90
31084;DHT22;36333;51.382;0.016;2023-02-01T04:08:23;6.20;99.90
31084;DHT22;36333;51.382;0.016;2023-02-01T04:10:51;5.10;99.90
31084;DHT22;36333;51.382;0.016;2023-02-01T04:13:18;6.60;99.90
31084;DHT22;36333;51.382;0.016;2023-02-01T04:15:47;6.40;99.90
31084;DHT22;36333;51.382;0.016;2023-02-01T04:18:17;5.50;99.90
31084;DHT22;36333;51.382;0.016;2023-02-01T04:20:44;5.40;99.90
31084;DHT22;36333;51.382;0.016;2023-02-01T04:23:12;5.40;99.90
31084;DHT22;36333;51.382;0.016;2023-02-01T04:25:39;6.20;99.90
31084;DHT22;36333;51.382;0.016;2023-02-01T04:28:07;5.50;99.90
31084;DHT22;36333;51.382;0.016;2023-02-01T04:30:34;5.50;99.90
31084;DHT22;36333;51.382;0.016;2023-02-01T04:33:02;5.50;99.90
31084;DHT22;36333;51.382;0.016;2023-02-01T04:35:32;5.50;99.90
31084;DHT22;36333;51.382;0.016;2023-02-01T04:38:01;5.50;99.90
31084;DHT22;36333;51.382;0.016;2023-02-01T04:40:28;5.50;99.90
31084;DHT22;36333;51.382;0.016;2023-02-01T04:42:56;5.50;99.90
31084;DHT22;36333;51.382;0.016;2023-02-01T04:45:23;5.60;99.90
31084;DHT22;36333;51.382;0.016;2023-02-01T04:47:51;5.50;99.90
31084;DHT22;36333;51.382;0.016;2023-02-01T04:50:18;5.40;99.90
31084;DHT22;36333;51.382;0.016;2023-02-01T04:52:48;7.20;99.90
31084;DHT22;36333;51.382;0.016;2023-02-01T04:55:15;5.50;99.90
31084;DHT22;36333;51.382;0.016;2023-02-01T04:57:43;5.50;99.90
31084;DHT22;36333;51.382;0.016;2023-02-01T05:00:11;5.50;99.90
31084;DHT22;36333;51.382;0.016;2023-02-01T05:02:40;5.50;99.90
31084;DHT22;36333;51.382;0.016;2023-02-01T05:05:08;6.90;99.90
31084;DHT22;36333;51.382;0.016;2023-02-01T05:07:35;5.50;99.90
31084;DHT22;36333;51.382;0.016;2023-02-01T05:10:03;6.30;99.90
31084;DHT22;36333;51.382;0.016;2023-02-01T05:12:31;5.40;99.90
31084;DHT22;36333;51.382;0.016;2023-02-01T05:15:17;5.40;99.90
31084;DHT22;36333;51.382;0.016;2023-02-01T05:17:44;5.40;99.90
31084;DHT22;36333;51.382;0.016;2023-02-01T05:20:11;5.40;99.90
31084;DHT22;36333;51.382;0.016;2023-02-01T05:22:41;5.40;99.90
31084;DHT22;36333;51.382;0.016;2023-02-01T05:25:09;5.60;99.90
31084;DHT22;36333;51.382;0.016;2023-02-01T05:27:37;4.70;99.90
31084;DHT22;36333;51.382;0.016;2023-02-01T05:30:05;5.40;99.90
31084;DHT22;36333;51.382;0.016;2023-02-01T05:32:33;5.40;99.90
31084;DHT22;36333;51.382;0.016;2023-02-01T05:35:01;5.30;99.90
31084;DHT22;36333;51.382;0.016;2023-02-01T05:37:28;5.50;99.90
31084;DHT22;36333;51.382;0.016;2023-02-01T05:39:56;5.40;99.90
31084;DHT22;36333;51.382;0.016;2023-02-01T05:42:23;5.50;99.90
31084;DHT22;36333;51.382;0.016;2023-02-01T05:44:51;5.50;99.90
31084;DHT22;36333;51.382;0.016;2023-02-01T05:47:18;5.40;99.90
31084;DHT22;36333;51.382;0.016;2023-02-01T05:49:47;5.40;99.90
31084;DHT22;36333;51.382;0.016;2023-02-01T05:52:15;7.00;99.90
31084;DHT22;36333;51.382;0.016;2023-02-01T05:54:46;5.60;99.90
31084;DHT22;36333;51.382;0.016;2023-02-01T05:57:14;5.50;99.90
31084;DHT22;36333;51.382;0.016;2023-02-01T05:59:42;5.70;99.90
31084;DHT22;36333;51.382;0.016;2023-02-01T06:02:12;5.60;99.90
31084;DHT22;36333;51.382;0.016;2023-02-01T06:04:39;5.60;99.90
31084;DHT22;36333;51.382;0.016;2023-02-01T06:07:10;6.70;99.90
31084;DHT22;36333;51.382;0.016;2023-02-01T06:09:37;5.50;99.90
31084;DHT22;36333;51.382;0.016;2023-02-01T06:12:05;6.40;99.90
31084;DHT22;36333;51.382;0.016;2023-02-01T06:14:33;5.50;99.90
31084;DHT22;36333;51.382;0.016;2023-02-01T06:17:00;5.50;99.90
31084;DHT22;36333;51.382;0.016;2023-02-01T06:19:28;6.10;99.90
31084;DHT22;36333;51.382;0.016;2023-02-01T06:21:55;5.10;99.90
31084;DHT22;36333;51.382;0.016;2023-02-01T06:24:23;5.60;99.90
31084;DHT22;36333;51.382;0.016;2023-02-01T06:26:50;6.00;99.90
31084;DHT22;36333;51.382;0.016;2023-02-01T06:29:18;7.60;99.90
31084;DHT22;36333;51.382;0.016;2023-02-01T06:31:45;5.80;99.90
31084;DHT22;36333;51.382;0.016;2023-02-01T06:34:15;5.70;99.90
31084;DHT22;36333;51.382;0.016;2023-02-01T06:36:42;5.50;99.90
31084;DHT22;36333;51.382;0.016;2023-02-01T06:39:10;7.50;99.90
31084;DHT22;36333;51.382;0.016;2023-02-01T06:41:39;5.50;99.90
31084;DHT22;36333;51.382;0.016;2023-02-01T06:44:07;7.40;99.90
31084;DHT22;36333;51.382;0.016;2023-02-01T06:46:34;7.00;99.90
31084;DHT22;36333;51.382;0.016;2023-02-01T06:49:02;6.80;99.90
31084;DHT22;36333;51.382;0.016;2023-02-01T06:51:29;6.10;99.90
31084;DHT22;36333;51.382;0.016;2023-02-01T06:53:57;7.30;99.90
31084;DHT22;36333;51.382;0.016;2023-02-01T06:56:25;5.70;99.90
31084;DHT22;36333;51.382;0.016;2023-02-01T07:01:54;4.50;99.90
31084;DHT22;36333;51.382;0.016;2023-02-01T07:04:21;5.50;99.90
31084;DHT22;36333;51.382;0.016;2023-02-01T07:06:49;5.90;99.90
31084;DHT22;36333;51.382;0.016;2023-02-01T07:09:16;5.50;99.90
31084;DHT22;36333;51.382;0.016;2023-02-01T07:11:44;5.50;99.90
31084;DHT22;36333;51.382;0.016;2023-02-01T07:14:11;5.50;99.90
31084;DHT22;36333;51.382;0.016;2023-02-01T07:16:39;5.60;99.90
31084;DHT22;36333;51.382;0.016;2023-02-01T07:19:06;5.60;99.90
31084;DHT22;36333;51.382;0.016;2023-02-01T07:21:35;5.50;99.90
31084;DHT22;36333;51.382;0.016;2023-02-01T07:24:02;5.60;99.90
31084;DHT22;36333;51.382;0.016;2023-02-01T07:26:30;5.60;99.90
31084;DHT22;36333;51.382;0.016;2023-02-01T07:28:58;5.70;99.90
31084;DHT22;36333;51.382;0.016;2023-02-01T07:31:25;7.60;99.90
31084;DHT22;36333;51.382;0.016;2023-02-01T07:33:56;5.50;99.90
31084;DHT22;36333;51.382;0.016;2023-02-01T07:36:24;8.00;99.90
31084;DHT22;36333;51.382;0.016;2023-02-01T07:38:52;5.70;99.90
31084;DHT22;36333;51.382;0.016;2023-02-01T07:41:23;5.70;99.90
31084;DHT22;36333;51.382;0.016;2023-02-01T07:43:52;5.80;99.90
31084;DHT22;36333;51.382;0.016;2023-02-01T07:46:20;5.80;99.90
31084;DHT22;36333;51.382;0.016;2023-02-01T07:48:48;6.50;99.90
31084;DHT22;36333;51.382;0.016;2023-02-01T07:51:16;5.70;99.90
31084;DHT22;36333;51.382;0.016;2023-02-01T07:53:45;5.90;99.90
31084;DHT22;36333;51.382;0.016;2023-02-01T07:56:13;5.90;99.90
31084;DHT22;36333;51.382;0.016;2023-02-01T07:58:41;5.90;99.90
31084;DHT22;36333;51.382;0.016;2023-02-01T08:01:25;5.80;99.90
31084;DHT22;36333;51.382;0.016;2023-02-01T08:06:23;5.80;99.90
31084;DHT22;36333;51.382;0.016;2023-02-01T08:08:54;5.90;99.90
31084;DHT22;36333;51.382;0.016;2023-02-01T08:11:23;6.00;99.90
31084;DHT22;36333;51.382;0.016;2023-02-01T08:13:51;5.80;99.90
31084;DHT22;36333;51.382;0.016;2023-02-01T08:16:20;5.90;99.90
31084;DHT22;36333;51.382;0.016;2023-02-01T08:18:49;7.40;99.90
31084;DHT22;36333;51.382;0.016;2023-02-01T08:21:18;5.80;99.90
31084;DHT22;36333;51.382;0.016;2023-02-01T08:23:45;5.90;99.90
31084;DHT22;36333;51.382;0.016;2023-02-01T08:26:18;5.80;99.90
31084;DHT22;36333;51.382;0.016;2023-02-01T08:28:51;5.90;99.90
31084;DHT22;36333;51.382;0.016;2023-02-01T08:31:20;5.90;99.90
31084;DHT22;36333;51.382;0.016;2023-02-01T08:33:51;5.90;99.90
31084;DHT22;36333;51.382;0.016;2023-02-01T08:36:20;6.20;99.90
31084;DHT22;36333;51.382;0.016;2023-02-01T08:38:47;6.00;99.90
31084;DHT22;36333;51.382;0.016;2023-02-01T08:41:20;6.00;99.90
31084;DHT22;36333;51.382;0.016;2023-02-01T08:43:48;6.00;99.90
31084;DHT22;36333;51.382;0.016;2023-02-01T08:46:17;6.00;99.90
31084;DHT22;36333;51.382;0.016;2023-02-01T08:48:45;6.10;99.90
31084;DHT22;36333;51.382;0.016;2023-02-01T08:51:14;6.10;99.90
31084;DHT22;36333;51.382;0.016;2023-02-01T08:53:42;6.00;99.90
31084;DHT22;36333;51.382;0.016;2023-02-01T08:56:12;7.80;99.90
31084;DHT22;36333;51.382;0.016;2023-02-01T08:58:40;6.10;99.90
31084;DHT22;36333;51.382;0.016;2023-02-01T09:01:15;6.30;99.90
31084;DHT22;36333;51.382;0.016;2023-02-01T09:03:43;6.10;99.90
31084;DHT22;36333;51.382;0.016;2023-02-01T09:06:14;6.20;99.90
31084;DHT22;36333;51.382;0.016;2023-02-01T09:08:44;6.20;99.90
31084;DHT22;36333;51.382;0.016;2023-02-01T09:11:17;6.20;99.90
31084;DHT22;36333;51.382;0.016;2023-02-01T09:13:47;6.30;99.90
31084;DHT22;36333;51.382;0.016;2023-02-01T09:16:15;6.50;99.90
31084;DHT22;36333;51.382;0.016;2023-02-01T09:18:43;6.50;99.90
31084;DHT22;36333;51.382;0.016;2023-02-01T09:21:28;6.30;99.90
31084;DHT22;36333;51.382;0.016;2023-02-01T09:23:56;6.60;99.90
31084;DHT22;36333;51.382;0.016;2023-02-01T09:26:24;6.30;99.90
31084;DHT22;36333;51.382;0.016;2023-02-01T09:29:00;6.40;99.90
31084;DHT22;36333;51.382;0.016;2023-02-01T09:31:28;6.40;99.90
31084;DHT22;36333;51.382;0.016;2023-02-01T09:33:56;5.70;99.90
31084;DHT22;36333;51.382;0.016;2023-02-01T09:36:23;6.50;99.90
31084;DHT22;36333;51.382;0.016;2023-02-01T09:38:52;6.60;99.90
31084;DHT22;36333;51.382;0.016;2023-02-01T09:41:46;8.10;99.90
31084;DHT22;36333;51.382;0.016;2023-02-01T09:47:14;6.90;99.90
31084;DHT22;36333;51.382;0.016;2023-02-01T09:50:00;7.00;99.90
31084;DHT22;36333;51.382;0.016;2023-02-01T09:52:52;7.00;99.90
31084;DHT22;36333;51.382;0.016;2023-02-01T09:55:42;7.00;99.90
31084;DHT22;36333;51.382;0.016;2023-02-01T09:58:20;7.20;99.90
31084;DHT22;36333;51.382;0.016;2023-02-01T10:00:55;7.10;99.90
31084;DHT22;36333;51.382;0.016;2023-02-01T10:03:30;7.90;99.90
31084;DHT22;36333;51.382;0.016;2023-02-01T10:11:27;7.20;99.90
31084;DHT22;36333;51.382;0.016;2023-02-01T10:25:35;7.40;99.90
31084;DHT22;36333;51.382;0.016;2023-02-01T10:28:04;7.50;99.90
31084;DHT22;36333;51.382;0.016;2023-02-01T10:30:39;9.30;99.90
31084;DHT22;36333;51.382;0.016;2023-02-01T10:33:30;7.70;99.90
31084;DHT22;36333;51.382;0.016;2023-02-01T10:36:24;8.40;99.90
31084;DHT22;36333;51.382;0.016;2023-02-01T10:38:58;7.70;99.90
31084;DHT22;36333;51.382;0.016;2023-02-01T10:41:33;7.80;99.90
31084;DHT22;36333;51.382;0.016;2023-02-01T10:44:03;7.60;99.90
31084;DHT22;36333;51.382;0.016;2023-02-01T10:46:32;9.40;99.90
31084;DHT22;36333;51.382;0.016;2023-02-01T10:49:03;9.20;99.90
31084;DHT22;36333;51.382;0.016;2023-02-01T10:51:47;7.90;99.90
31084;DHT22;36333;51.382;0.016;2023-02-01T10:54:35;8.10;99.90
31084;DHT22;36333;51.382;0.016;2023-02-01T10:57:10;8.00;99.90
31084;DHT22;36333;51.382;0.016;2023-02-01T10:59:38;9.60;99.90
31084;DHT22;36333;51.382;0.016;2023-02-01T11:02:20;9.90;99.90
31084;DHT22;36333;51.382;0.016;2023-02-01T11:04:48;8.90;99.90
31084;DHT22;36333;51.382;0.016;2023-02-01T11:07:23;9.10;99.90
31084;DHT22;36333;51.382;0.016;2023-02-01T11:09:53;8.10;99.90
31084;DHT22;36333;51.382;0.016;2023-02-01T11:12:30;9.90;99.90
31084;DHT22;36333;51.382;0.016;2023-02-01T11:15:25;10.10;99.90
31084;DHT22;36333;51.382;0.016;2023-02-01T11:17:52;8.10;99.90
31084;DHT22;36333;51.382;0.016;2023-02-01T11:20:35;9.80;99.90
31084;DHT22;36333;51.382;0.016;2023-02-01T11:23:05;9.70;99.90
31084;DHT22;36333;51.382;0.016;2023-02-01T11:25:35;8.20;99.90
31084;DHT22;36333;51.382;0.016;2023-02-01T11:28:03;8.30;99.90
31084;DHT22;36333;51.382;0.016;2023-02-01T11:30:44;8.40;99.90
31084;DHT22;36333;51.382;0.016;2023-02-01T11:33:30;8.50;99.90
31084;DHT22;36333;51.382;0.016;2023-02-01T11:36:07;9.50;99.90
31084;DHT22;36333;51.382;0.016;2023-02-01T11:38:35;8.70;99.90
31084;DHT22;36333;51.382;0.016;2023-02-01T11:41:21;10.00;99.90
31084;DHT22;36333;51.382;0.016;2023-02-01T11:44:19;8.70;99.90
31084;DHT22;36333;51.382;0.016;2023-02-01T11:46:47;8.70;99.90
31084;DHT22;36333;51.382;0.016;2023-02-01T11:49:25;9.80;99.90
31084;DHT22;36333;51.382;0.016;2023-02-01T12:19:50;8.70;99.90
31084;DHT22;36333;51.382;0.016;2023-02-01T12:36:15;9.30;99.90
31084;DHT22;36333;51.382;0.016;2023-02-01T12:44:34;9.70;99.90
31084;DHT22;36333;51.382;0.016;2023-02-01T12:49:54;10.10;99.90
31084;DHT22;36333;51.382;0.016;2023-02-01T12:52:34;9.70;99.90
31084;DHT22;36333;51.382;0.016;2023-02-01T12:55:17;9.80;99.90
31084;DHT22;36333;51.382;0.016;2023-02-01T12:57:52;9.90;99.90
31084;DHT22;36333;51.382;0.016;2023-02-01T13:05:54;10.10;99.90
31084;DHT22;36333;51.382;0.016;2023-02-01T13:08:36;10.20;99.90
31084;DHT22;36333;51.382;0.016;2023-02-01T13:11:24;11.30;99.90
31084;DHT22;36333;51.382;0.016;2023-02-01T13:17:02;10.40;99.90
31084;DHT22;36333;51.382;0.016;2023-02-01T13:22:22;10.40;99.90
31084;DHT22;36333;51.382;0.016;2023-02-01T13:25:03;11.50;99.90
31084;DHT22;36333;51.382;0.016;2023-02-01T13:27:33;10.50;99.90
31084;DHT22;36333;51.382;0.016;2023-02-01T13:36:14;10.60;99.90
31084;DHT22;36333;51.382;0.016;2023-02-01T13:42:17;10.80;99.90
31084;DHT22;36333;51.382;0.016;2023-02-01T13:45:13;10.80;99.90
31084;DHT22;36333;51.382;0.016;2023-02-01T13:47:43;10.80;99.90
31084;DHT22;36333;51.382;0.016;2023-02-01T13:55:44;10.80;99.90
31084;DHT22;36333;51.382;0.016;2023-02-01T13:58:33;10.90;99.90
31084;DHT22;36333;51.382;0.016;2023-02-01T14:04:04;10.90;99.90
31084;DHT22;36333;51.382;0.016;2023-02-01T14:06:38;11.00;99.90
31084;DHT22;36333;51.382;0.016;2023-02-01T14:19:39;10.90;99.90
31084;DHT22;36333;51.382;0.016;2023-02-01T14:24:52;11.30;99.90
31084;DHT22;36333;51.382;0.016;2023-02-01T14:27:34;11.00;99.90
31084;DHT22;36333;51.382;0.016;2023-02-01T14:30:07;11.10;99.90
31084;DHT22;36333;51.382;0.016;2023-02-01T14:32:41;11.10;99.90
31084;DHT22;36333;51.382;0.016;2023-02-01T14:35:19;11.00;99.90
31084;DHT22;36333;51.382;0.016;2023-02-01T14:37:52;11.20;99.90
31084;DHT22;36333;51.382;0.016;2023-02-01T14:40:25;11.20;99.90
31084;DHT22;36333;51.382;0.016;2023-02-01T14:42:54;11.20;99.90
31084;DHT22;36333;51.382;0.016;2023-02-01T14:53:11;11.10;99.90
31084;DHT22;36333;51.382;0.016;2023-02-01T14:58:44;11.20;99.90
31084;DHT22;36333;51.382;0.016;2023-02-01T15:01:31;11.10;99.90
31084;DHT22;36333;51.382;0.016;2023-02-01T15:04:13;11.20;99.90
31084;DHT22;36333;51.382;0.016;2023-02-01T15:06:48;11.10;99.90
31084;DHT22;36333;51.382;0.016;2023-02-01T15:09:26;11.20;99.90
31084;DHT22;36333;51.382;0.016;2023-02-01T15:14:47;11.20;99.90
31084;DHT22;36333;51.382;0.016;2023-02-01T15:17:24;11.20;99.90
31084;DHT22;36333;51.382;0.016;2023-02-01T15:19:57;11.30;99.90
31084;DHT22;36333;51.382;0.016;2023-02-01T15:22:34;11.10;99.90
31084;DHT22;36333;51.382;0.016;2023-02-01T15:25:05;11.40;99.90
31084;DHT22;36333;51.382;0.016;2023-02-01T15:27:33;9.50;99.90
31084;DHT22;36333;51.382;0.016;2023-02-01T15:30:16;11.50;99.90
31084;DHT22;36333;51.382;0.016;2023-02-01T15:32:44;10.90;99.90
31084;DHT22;36333;51.382;0.016;2023-02-01T15:35:40;10.80;99.90
31084;DHT22;36333;51.382;0.016;2023-02-01T15:48:58;10.50;99.90
31084;DHT22;36333;51.382;0.016;2023-02-01T15:51:28;10.40;99.90
31084;DHT22;36333;51.382;0.016;2023-02-01T15:54:00;10.40;99.90
31084;DHT22;36333;51.382;0.016;2023-02-01T15:56:40;10.70;99.90
31084;DHT22;36333;51.382;0.016;2023-02-01T15:59:20;10.90;99.90
31084;DHT22;36333;51.382;0.016;2023-02-01T16:01:49;10.20;99.90
31084;DHT22;36333;51.382;0.016;2023-02-01T16:04:21;9.90;99.90
31084;DHT22;36333;51.382;0.016;2023-02-01T16:06:54;12.20;99.90
31084;DHT22;36333;51.382;0.016;2023-02-01T16:09:24;10.40;99.90
31084;DHT22;36333;51.382;0.016;2023-02-01T16:11:56;10.10;99.90
31084;DHT22;36333;51.382;0.016;2023-02-01T16:14:24;10.10;99.90
31084;DHT22;36333;51.382;0.016;2023-02-01T16:16:56;10.40;99.90
31084;DHT22;36333;51.382;0.016;2023-02-01T16:19:24;10.60;99.90
31084;DHT22;36333;51.382;0.016;2023-02-01T16:21:56;10.00;99.90
31084;DHT22;36333;51.382;0.016;2023-02-01T16:24:24;9.90;99.90
31084;DHT22;36333;51.382;0.016;2023-02-01T16:26:53;9.90;99.90
31084;DHT22;36333;51.382;0.016;2023-02-01T16:29:21;9.90;99.90
31084;DHT22;36333;51.382;0.016;2023-02-01T16:31:52;10.00;99.90
31084;DHT22;36333;51.382;0.016;2023-02-01T16:34:19;10.20;99.90
31084;DHT22;36333;51.382;0.016;2023-02-01T16:36:49;10.70;99.90
31084;DHT22;36333;51.382;0.016;2023-02-01T16:39:21;10.80;99.90
31084;DHT22;36333;51.382;0.016;2023-02-01T16:41:49;9.70;99.90
31084;DHT22;36333;51.382;0.016;2023-02-01T16:44:19;9.70;99.90
31084;DHT22;36333;51.382;0.016;2023-02-01T16:46:47;9.70;99.90
31084;DHT22;36333;51.382;0.016;2023-02-01T16:49:23;9.70;99.90
31084;DHT22;36333;51.382;0.016;2023-02-01T16:51:58;9.60;99.90
31084;DHT22;36333;51.382;0.016;2023-02-01T16:54:26;9.10;99.90
31084;DHT22;36333;51.382;0.016;2023-02-01T16:59:59;9.60;99.90
31084;DHT22;36333;51.382;0.016;2023-02-01T17:02:48;9.60;99.90
31084;DHT22;36333;51.382;0.016;2023-02-01T17:05:16;9.60;99.90
31084;DHT22;36333;51.382;0.016;2023-02-01T17:07:44;9.70;99.90
31084;DHT22;36333;51.382;0.016;2023-02-01T17:10:25;10.00;99.90
31084;DHT22;36333;51.382;0.016;2023-02-01T17:13:01;9.60;99.90
31084;DHT22;36333;51.382;0.016;2023-02-01T17:15:31;9.60;99.90
31084;DHT22;36333;51.382;0.016;2023-02-01T17:18:01;9.50;99.90
31084;DHT22;36333;51.382;0.016;2023-02-01T17:20:30;9.50;99.90
31084;DHT22;36333;51.382;0.016;2023-02-01T17:22:59;9.70;99.90
31084;DHT22;36333;51.382;0.016;2023-02-01T17:25:29;9.50;99.90
31084;DHT22;36333;51.382;0.016;2023-02-01T17:27:57;10.20;99.90
31084;DHT22;36333;51.382;0.016;2023-02-01T17:30:25;10.00;99.90
31084;DHT22;36333;51.382;0.016;2023-02-01T17:32:52;10.20;99.90
31084;DHT22;36333;51.382;0.016;2023-02-01T17:35:27;9.50;99.90
31084;DHT22;36333;51.382;0.016;2023-02-01T17:37:55;9.40;99.90
31084;DHT22;36333;51.382;0.016;2023-02-01T17:40:23;9.40;99.90
31084;DHT22;36333;51.382;0.016;2023-02-01T17:42:51;9.40;99.90
31084;DHT22;36333;51.382;0.016;2023-02-01T17:45:36;9.40;99.90
31084;DHT22;36333;51.382;0.016;2023-02-01T17:48:07;9.30;99.90
31084;DHT22;36333;51.382;0.016;2023-02-01T17:50:35;10.20;99.90
31084;DHT22;36333;51.382;0.016;2023-02-01T17:53:04;9.30;99.90
31084;DHT22;36333;51.382;0.016;2023-02-01T17:55:39;9.30;99.90
31084;DHT22;36333;51.382;0.016;2023-02-01T17:58:11;9.10;99.90
31084;DHT22;36333;51.382;0.016;2023-02-01T18:00:40;9.10;99.90
31084;DHT22;36333;51.382;0.016;2023-02-01T18:05:45;9.80;99.90
31084;DHT22;36333;51.382;0.016;2023-02-01T18:08:18;10.10;99.90
31084;DHT22;36333;51.382;0.016;2023-02-01T18:10:50;8.90;99.90
31084;DHT22;36333;51.382;0.016;2023-02-01T18:13:17;9.70;99.90
31084;DHT22;36333;51.382;0.016;2023-02-01T18:15:45;8.90;99.90
31084;DHT22;36333;51.382;0.016;2023-02-01T18:18:13;10.00;99.90
31084;DHT22;36333;51.382;0.016;2023-02-01T18:20:42;9.00;99.90
31084;DHT22;36333;51.382;0.016;2023-02-01T18:23:15;9.00;99.90
31084;DHT22;36333;51.382;0.016;2023-02-01T18:25:44;8.90;99.90
31084;DHT22;36333;51.382;0.016;2023-02-01T18:28:14;9.10;99.90
31084;DHT22;36333;51.382;0.016;2023-02-01T18:30:47;9.10;99.90
31084;DHT22;36333;51.382;0.016;2023-02-01T18:33:18;9.00;99.90
31084;DHT22;36333;51.382;0.016;2023-02-01T18:35:46;9.00;99.90
31084;DHT22;36333;51.382;0.016;2023-02-01T18:38:14;9.00;99.90
31084;DHT22;36333;51.382;0.016;2023-02-01T18:40:50;9.70;99.90
31084;DHT22;36333;51.382;0.016;2023-02-01T18:43:19;9.00;99.90
31084;DHT22;36333;51.382;0.016;2023-02-01T18:45:46;9.00;99.90
31084;DHT22;36333;51.382;0.016;2023-02-01T18:48:16;9.00;99.90
31084;DHT22;36333;51.382;0.016;2023-02-01T18:50:44;8.90;99.90
31084;DHT22;36333;51.382;0.016;2023-02-01T18:53:17;8.80;99.90
31084;DHT22;36333;51.382;0.016;2023-02-01T18:55:54;8.60;99.90
31084;DHT22;36333;51.382;0.016;2023-02-01T18:58:22;8.70;99.90
31084;DHT22;36333;51.382;0.016;2023-02-01T19:00:56;8.70;99.90
31084;DHT22;36333;51.382;0.016;2023-02-01T19:03:24;8.80;99.90
31084;DHT22;36333;51.382;0.016;2023-02-01T19:05:54;8.60;99.90
31084;DHT22;36333;51.382;0.016;2023-02-01T19:08:23;8.50;99.90
31084;DHT22;36333;51.382;0.016;2023-02-01T19:10:52;9.60;99.90
31084;DHT22;36333;51.382;0.016;2023-02-01T19:13:20;8.40;99.90
31084;DHT22;36333;51.382;0.016;2023-02-01T19:15:50;8.40;99.90
31084;DHT22;36333;51.382;0.016;2023-02-01T19:18:18;8.50;99.90